sensor_id;sensor_type;location;lat;lon;timestamp;temperature;humidity
12661;DHT22;39039;51.802;5.710;2022-09-20T03:13:26;12.50;99.90
12661;DHT22;39039;51.802;5.710;2022-09-20T03:34:00;12.30;99.90
12661;DHT22;39039;51.802;5.710;2022-09-20T04:10:53;12.20;99.90
12661;DHT22;39039;51.802;5.710;2022-09-20T04:13:33;12.30;99.90
12661;DHT22;39039;51.802;5.710;2022-09-20T04:26:09;12.20;99.90
12661;DHT22;39039;51.802;5.710;2022-09-20T05:06:51;11.60;99.90
12661;DHT22;39039;51.802;5.710;2022-09-20T05:12:25;11.50;99.90
12661;DHT22;39039;51.802;5.710;2022-09-20T05:51:15;11.30;99.90
12661;DHT22;39039;51.802;5.710;2022-09-20T07:22:03;14.30;99.90
12661;DHT22;39039;51.802;5.710;2022-09-20T07:29:25;14.80;99.90
12661;DHT22;39039;51.802;5.710;2022-09-20T07:59:12;15.80;99.90
12661;DHT22;39039;51.802;5.710;2022-09-20T08:01:39;15.70;99.90
12661;DHT22;39039;51.802;5.710;2022-09-20T08:06:35;16.20;99.90
12661;DHT22;39039;51.802;5.710;2022-09-20T08:13:58;16.10;99.90
12661;DHT22;39039;51.802;5.710;2022-09-20T08:16:27;16.00;99.90
12661;DHT22;39039;51.802;5.710;2022-09-20T08:18:56;16.00;99.90
12661;DHT22;39039;51.802;5.710;2022-09-20T08:21:24;16.00;99.90
12661;DHT22;39039;51.802;5.710;2022-09-20T08:26:19;16.00;99.90
12661;DHT22;39039;51.802;5.710;2022-09-20T08:28:51;16.20;99.90
12661;DHT22;39039;51.802;5.710;2022-09-20T08:31:19;16.40;99.90
12661;DHT22;39039;51.802;5.710;2022-09-20T08:33:48;16.60;99.90
12661;DHT22;39039;51.802;5.710;2022-09-20T08:36:17;17.50;99.90
12661;DHT22;39039;51.802;5.710;2022-09-20T08:41:14;17.00;99.90
12661;DHT22;39039;51.802;5.710;2022-09-20T08:43:47;16.90;99.90
12661;DHT22;39039;51.802;5.710;2022-09-20T08:46:18;16.80;99.90
12661;DHT22;39039;51.802;5.710;2022-09-20T08:48:45;16.90;99.90
12661;DHT22;39039;51.802;5.710;2022-09-20T08:51:14;16.80;99.90
12661;DHT22;39039;51.802;5.710;2022-09-20T08:53:46;16.80;99.90
12661;DHT22;39039;51.802;5.710;2022-09-20T09:01:10;16.60;99.90
12661;DHT22;39039;51.802;5.710;2022-09-20T09:06:10;16.30;99.90
12661;DHT22;39039;51.802;5.710;2022-09-20T09:08:42;16.30;99.90
12661;DHT22;39039;51.802;5.710;2022-09-20T09:11:13;16.30;99.90
12661;DHT22;39039;51.802;5.710;2022-09-20T09:13:46;16.10;99.90
12661;DHT22;39039;51.802;5.710;2022-09-20T09:16:16;15.90;99.90
12661;DHT22;39039;51.802;5.710;2022-09-20T09:18:45;15.80;99.90
12661;DHT22;39039;51.802;5.710;2022-09-20T09:21:17;15.50;99.90
12661;DHT22;39039;51.802;5.710;2022-09-20T09:23:50;15.40;99.90
12661;DHT22;39039;51.802;5.710;2022-09-20T09:26:20;15.50;99.90
12661;DHT22;39039;51.802;5.710;2022-09-20T09:29:07;15.60;99.90
12661;DHT22;39039;51.802;5.710;2022-09-20T10:08:08;16.50;99.90
12661;DHT22;39039;51.802;5.710;2022-09-20T10:10:47;17.80;99.90
12661;DHT22;39039;51.802;5.710;2022-09-20T10:13:22;16.70;99.90
12661;DHT22;39039;51.802;5.710;2022-09-20T10:15:55;16.60;99.90
12661;DHT22;39039;51.802;5.710;2022-09-20T10:18:40;16.60;99.90
12661;DHT22;39039;51.802;5.710;2022-09-20T10:21:17;17.30;99.90
12661;DHT22;39039;51.802;5.710;2022-09-20T10:23:59;17.60;99.90
12661;DHT22;39039;51.802;5.710;2022-09-20T10:26:54;18.10;99.90
12661;DHT22;39039;51.802;5.710;2022-09-20T10:29:32;18.50;99.90
12661;DHT22;39039;51.802;5.710;2022-09-20T10:32:12;18.60;99.90
12661;DHT22;39039;51.802;5.710;2022-09-20T10:37:39;18.50;99.90
12661;DHT22;39039;51.802;5.710;2022-09-20T10:40:22;18.80;99.90
12661;DHT22;39039;51.802;5.710;2022-09-20T10:42:55;19.00;99.90
12661;DHT22;39039;51.802;5.710;2022-09-20T10:45:49;19.30;99.90
12661;DHT22;39039;51.802;5.710;2022-09-20T10:48:26;20.00;99.90
12661;DHT22;39039;51.802;5.710;2022-09-20T10:51:00;19.00;99.90
12661;DHT22;39039;51.802;5.710;2022-09-20T10:53:35;18.90;99.90
12661;DHT22;39039;51.802;5.710;2022-09-20T10:56:20;18.90;99.90
12661;DHT22;39039;51.802;5.710;2022-09-20T11:02:04;18.60;99.90
12661;DHT22;39039;51.802;5.710;2022-09-20T11:04:52;18.40;99.90
12661;DHT22;39039;51.802;5.710;2022-09-20T11:07:28;18.10;99.90
12661;DHT22;39039;51.802;5.710;2022-09-20T11:10:03;18.10;99.90
12661;DHT22;39039;51.802;5.710;2022-09-20T11:12:37;18.40;99.90
12661;DHT22;39039;51.802;5.710;2022-09-20T11:15:14;18.30;99.90
12661;DHT22;39039;51.802;5.710;2022-09-20T11:17:45;18.10;99.90
12661;DHT22;39039;51.802;5.710;2022-09-20T11:20:17;17.90;99.90
12661;DHT22;39039;51.802;5.710;2022-09-20T11:22:47;17.90;99.90
12661;DHT22;39039;51.802;5.710;2022-09-20T11:25:19;17.80;99.90
12661;DHT22;39039;51.802;5.710;2022-09-20T11:27:50;17.30;99.90
12661;DHT22;39039;51.802;5.710;2022-09-20T11:30:20;17.10;99.90
12661;DHT22;39039;51.802;5.710;2022-09-20T11:32:51;16.90;99.90
12661;DHT22;39039;51.802;5.710;2022-09-20T11:35:28;16.70;99.90
12661;DHT22;39039;51.802;5.710;2022-09-20T11:38:05;16.80;99.90
12661;DHT22;39039;51.802;5.710;2022-09-20T11:40:37;16.80;99.90
12661;DHT22;39039;51.802;5.710;2022-09-20T11:43:07;16.90;99.90
12661;DHT22;39039;51.802;5.710;2022-09-20T11:45:37;16.90;99.90
12661;DHT22;39039;51.802;5.710;2022-09-20T11:48:09;17.10;99.90
12661;DHT22;39039;51.802;5.710;2022-09-20T11:51:07;17.20;99.90
12661;DHT22;39039;51.802;5.710;2022-09-20T11:53:46;17.30;99.90
12661;DHT22;39039;51.802;5.710;2022-09-20T11:56:19;17.50;99.90
12661;DHT22;39039;51.802;5.710;2022-09-20T11:58:50;17.70;99.90
12661;DHT22;39039;51.802;5.710;2022-09-20T12:01:24;17.90;99.90
12661;DHT22;39039;51.802;5.710;2022-09-20T12:03:54;18.20;99.90
12661;DHT22;39039;51.802;5.710;2022-09-20T12:06:26;18.60;99.90
12661;DHT22;39039;51.802;5.710;2022-09-20T12:11:30;19.80;99.90
12661;DHT22;39039;51.802;5.710;2022-09-20T12:14:03;20.20;98.80
12661;DHT22;39039;51.802;5.710;2022-09-20T12:16:39;20.30;97.60
12661;DHT22;39039;51.802;5.710;2022-09-20T12:19:09;20.10;98.50
12661;DHT22;39039;51.802;5.710;2022-09-20T12:22:16;19.70;98.10
12661;DHT22;39039;51.802;5.710;2022-09-20T12:27:56;19.40;99.70
12661;DHT22;39039;51.802;5.710;2022-09-20T12:30:25;19.40;99.30
12661;DHT22;39039;51.802;5.710;2022-09-20T12:32:57;19.20;99.50
12661;DHT22;39039;51.802;5.710;2022-09-20T12:35:57;19.20;99.90
12661;DHT22;39039;51.802;5.710;2022-09-20T12:38:36;19.20;98.10
12661;DHT22;39039;51.802;5.710;2022-09-20T12:41:07;18.90;98.30
12661;DHT22;39039;51.802;5.710;2022-09-20T12:43:37;18.80;99.00
12661;DHT22;39039;51.802;5.710;2022-09-20T12:46:05;18.80;98.70
12661;DHT22;39039;51.802;5.710;2022-09-20T12:48:35;18.90;99.30
12661;DHT22;39039;51.802;5.710;2022-09-20T12:51:05;19.10;99.00
12661;DHT22;39039;51.802;5.710;2022-09-20T12:54:04;22.60;99.90
12661;DHT22;39039;51.802;5.710;2022-09-20T12:56:34;19.10;98.70
12661;DHT22;39039;51.802;5.710;2022-09-20T12:59:02;19.10;99.00
12661;DHT22;39039;51.802;5.710;2022-09-20T13:01:36;19.00;99.80
12661;DHT22;39039;51.802;5.710;2022-09-20T13:04:38;19.00;99.60
12661;DHT22;39039;51.802;5.710;2022-09-20T13:07:29;18.90;97.70
12661;DHT22;39039;51.802;5.710;2022-09-20T13:10:00;18.80;98.30
12661;DHT22;39039;51.802;5.710;2022-09-20T13:12:28;18.90;97.80
12661;DHT22;39039;51.802;5.710;2022-09-20T13:14:56;19.00;99.00
12661;DHT22;39039;51.802;5.710;2022-09-20T13:17:26;19.30;97.90
12661;DHT22;39039;51.802;5.710;2022-09-20T13:22:25;19.30;97.70
12661;DHT22;39039;51.802;5.710;2022-09-20T13:24:56;19.80;97.60
12661;DHT22;39039;51.802;5.710;2022-09-20T13:27:27;19.40;97.10
12661;DHT22;39039;51.802;5.710;2022-09-20T13:30:08;19.50;97.10
12661;DHT22;39039;51.802;5.710;2022-09-20T13:32:36;19.60;98.00
12661;DHT22;39039;51.802;5.710;2022-09-20T13:35:07;19.40;99.00
12661;DHT22;39039;51.802;5.710;2022-09-20T13:37:45;19.50;98.60
12661;DHT22;39039;51.802;5.710;2022-09-20T13:40:17;19.30;98.30
12661;DHT22;39039;51.802;5.710;2022-09-20T13:42:45;19.00;98.60
12661;DHT22;39039;51.802;5.710;2022-09-20T13:45:13;18.90;99.00
12661;DHT22;39039;51.802;5.710;2022-09-20T13:47:43;18.80;99.60
12661;DHT22;39039;51.802;5.710;2022-09-20T13:50:19;18.80;99.20
12661;DHT22;39039;51.802;5.710;2022-09-20T13:52:47;19.20;99.90
12661;DHT22;39039;51.802;5.710;2022-09-20T13:55:26;19.60;99.60
12661;DHT22;39039;51.802;5.710;2022-09-20T13:57:55;19.70;99.60
12661;DHT22;39039;51.802;5.710;2022-09-20T14:02:52;19.90;99.50
12661;DHT22;39039;51.802;5.710;2022-09-20T14:05:22;19.90;99.10
12661;DHT22;39039;51.802;5.710;2022-09-20T14:07:49;20.10;99.80
12661;DHT22;39039;51.802;5.710;2022-09-20T14:10:31;20.10;98.90
12661;DHT22;39039;51.802;5.710;2022-09-20T14:12:59;19.70;98.90
12661;DHT22;39039;51.802;5.710;2022-09-20T14:15:29;19.40;99.40
12661;DHT22;39039;51.802;5.710;2022-09-20T14:18:00;19.20;99.70
12661;DHT22;39039;51.802;5.710;2022-09-20T14:20:29;18.90;99.90
12661;DHT22;39039;51.802;5.710;2022-09-20T14:22:56;18.60;99.90
12661;DHT22;39039;51.802;5.710;2022-09-20T14:25:24;18.70;99.90
12661;DHT22;39039;51.802;5.710;2022-09-20T14:28:05;19.00;99.90
12661;DHT22;39039;51.802;5.710;2022-09-20T14:30:33;19.20;99.90
12661;DHT22;39039;51.802;5.710;2022-09-20T14:33:03;19.10;99.30
12661;DHT22;39039;51.802;5.710;2022-09-20T14:37:59;19.10;99.30
12661;DHT22;39039;51.802;5.710;2022-09-20T14:40:29;19.00;99.20
12661;DHT22;39039;51.802;5.710;2022-09-20T14:42:57;18.90;98.80
12661;DHT22;39039;51.802;5.710;2022-09-20T14:45:28;18.80;99.20
12661;DHT22;39039;51.802;5.710;2022-09-20T14:47:58;18.80;98.80
12661;DHT22;39039;51.802;5.710;2022-09-20T14:50:30;18.70;99.70
12661;DHT22;39039;51.802;5.710;2022-09-20T14:52:59;18.70;99.60
12661;DHT22;39039;51.802;5.710;2022-09-20T14:55:26;18.50;99.90
12661;DHT22;39039;51.802;5.710;2022-09-20T14:57:59;18.30;99.90
12661;DHT22;39039;51.802;5.710;2022-09-20T15:00:26;18.10;99.90
12661;DHT22;39039;51.802;5.710;2022-09-20T15:03:00;18.00;99.90
12661;DHT22;39039;51.802;5.710;2022-09-20T15:05:30;17.80;99.90
12661;DHT22;39039;51.802;5.710;2022-09-20T15:07:59;17.80;99.90
12661;DHT22;39039;51.802;5.710;2022-09-20T15:12:54;18.00;99.90
12661;DHT22;39039;51.802;5.710;2022-09-20T15:20:16;17.60;99.90
12661;DHT22;39039;51.802;5.710;2022-09-20T15:22:45;17.40;99.90
12661;DHT22;39039;51.802;5.710;2022-09-20T15:25:13;17.50;99.90
12661;DHT22;39039;51.802;5.710;2022-09-20T15:30:10;18.00;99.90
12661;DHT22;39039;51.802;5.710;2022-09-20T15:32:38;18.60;99.90
12661;DHT22;39039;51.802;5.710;2022-09-20T15:35:06;19.30;99.90
12661;DHT22;39039;51.802;5.710;2022-09-20T15:40:02;19.70;98.60
12661;DHT22;39039;51.802;5.710;2022-09-20T15:42:29;20.00;98.80
12661;DHT22;39039;51.802;5.710;2022-09-20T15:44:56;20.30;98.50
12661;DHT22;39039;51.802;5.710;2022-09-20T15:47:23;20.50;97.70
12661;DHT22;39039;51.802;5.710;2022-09-20T15:54:50;20.70;97.60
12661;DHT22;39039;51.802;5.710;2022-09-20T15:57:18;20.40;97.60
12661;DHT22;39039;51.802;5.710;2022-09-20T16:07:09;19.50;99.30
12661;DHT22;39039;51.802;5.710;2022-09-20T16:09:36;19.60;99.60
12661;DHT22;39039;51.802;5.710;2022-09-20T16:12:04;19.70;99.60
12661;DHT22;39039;51.802;5.710;2022-09-20T16:14:32;19.70;99.40
12661;DHT22;39039;51.802;5.710;2022-09-20T16:19:26;19.60;99.90
12661;DHT22;39039;51.802;5.710;2022-09-20T16:21:53;19.70;99.90
12661;DHT22;39039;51.802;5.710;2022-09-20T16:24:22;19.80;99.90
12661;DHT22;39039;51.802;5.710;2022-09-20T16:29:17;19.70;99.90
12661;DHT22;39039;51.802;5.710;2022-09-20T16:31:46;19.50;99.90
12661;DHT22;39039;51.802;5.710;2022-09-20T16:34:15;19.30;99.90
12661;DHT22;39039;51.802;5.710;2022-09-20T16:39:11;19.30;99.90
12661;DHT22;39039;51.802;5.710;2022-09-20T16:44:06;19.00;99.90
12661;DHT22;39039;51.802;5.710;2022-09-20T16:49:03;18.80;99.90
12661;DHT22;39039;51.802;5.710;2022-09-20T16:51:33;18.50;99.90
12661;DHT22;39039;51.802;5.710;2022-09-20T16:54:01;18.20;99.90
12661;DHT22;39039;51.802;5.710;2022-09-20T16:56:29;17.70;99.90
12661;DHT22;39039;51.802;5.710;2022-09-20T17:03:50;16.90;99.90
12661;DHT22;39039;51.802;5.710;2022-09-20T17:06:18;16.70;99.90
12661;DHT22;39039;51.802;5.710;2022-09-20T17:11:15;16.40;99.90
12661;DHT22;39039;51.802;5.710;2022-09-20T17:13:43;16.20;99.90
12661;DHT22;39039;51.802;5.710;2022-09-20T17:16:13;16.10;99.90
12661;DHT22;39039;51.802;5.710;2022-09-20T17:21:09;15.80;99.90
12661;DHT22;39039;51.802;5.710;2022-09-20T17:23:40;15.70;99.90
12661;DHT22;39039;51.802;5.710;2022-09-20T17:26:10;15.60;99.90
12661;DHT22;39039;51.802;5.710;2022-09-20T17:28:39;15.40;99.90
12661;DHT22;39039;51.802;5.710;2022-09-20T17:31:09;15.30;99.90
12661;DHT22;39039;51.802;5.710;2022-09-20T17:36:04;15.00;99.90
12661;DHT22;39039;51.802;5.710;2022-09-20T17:38:32;14.80;99.90
12661;DHT22;39039;51.802;5.710;2022-09-20T17:41:03;17.40;99.90
12661;DHT22;39039;51.802;5.710;2022-09-20T17:43:33;14.50;99.90
12661;DHT22;39039;51.802;5.710;2022-09-20T17:46:05;14.30;99.90
12661;DHT22;39039;51.802;5.710;2022-09-20T17:48:33;14.10;99.90
12661;DHT22;39039;51.802;5.710;2022-09-20T17:53:30;13.80;99.90
12661;DHT22;39039;51.802;5.710;2022-09-20T17:55:58;13.60;99.90
12661;DHT22;39039;51.802;5.710;2022-09-20T17:58:27;13.40;99.90
12661;DHT22;39039;51.802;5.710;2022-09-20T18:03:23;13.10;99.90
12661;DHT22;39039;51.802;5.710;2022-09-20T18:05:50;13.00;99.90
12661;DHT22;39039;51.802;5.710;2022-09-20T18:10:53;11.20;99.90
12661;DHT22;39039;51.802;5.710;2022-09-20T18:15:49;12.60;99.90
12661;DHT22;39039;51.802;5.710;2022-09-20T18:18:16;12.50;99.90
12661;DHT22;39039;51.802;5.710;2022-09-20T18:33:16;12.20;99.90
12661;DHT22;39039;51.802;5.710;2022-09-20T18:50:33;11.90;99.90
12661;DHT22;39039;51.802;5.710;2022-09-20T18:55:27;11.90;99.90
12661;DHT22;39039;51.802;5.710;2022-09-20T18:57:54;11.80;99.90
12661;DHT22;39039;51.802;5.710;2022-09-20T19:02:58;11.70;99.90
12661;DHT22;39039;51.802;5.710;2022-09-20T19:05:34;11.60;99.90
12661;DHT22;39039;51.802;5.710;2022-09-20T19:08:12;11.50;99.90
12661;DHT22;39039;51.802;5.710;2022-09-20T19:10:46;11.50;99.90
12661;DHT22;39039;51.802;5.710;2022-09-20T19:13:24;11.40;99.90
12661;DHT22;39039;51.802;5.710;2022-09-20T19:16:10;11.40;99.90
12661;DHT22;39039;51.802;5.710;2022-09-20T19:19:03;11.30;99.90
12661;DHT22;39039;51.802;5.710;2022-09-20T19:21:39;11.20;99.90
12661;DHT22;39039;51.802;5.710;2022-09-20T19:24:18;11.20;99.90
12661;DHT22;39039;51.802;5.710;2022-09-20T19:29:18;11.20;99.90
12661;DHT22;39039;51.802;5.710;2022-09-20T19:31:47;11.10;99.90
12661;DHT22;39039;51.802;5.710;2022-09-20T19:34:17;11.10;99.90
12661;DHT22;39039;51.802;5.710;2022-09-20T19:36:56;11.10;99.90
12661;DHT22;39039;51.802;5.710;2022-09-20T19:39:29;11.00;99.90
12661;DHT22;39039;51.802;5.710;2022-09-20T19:42:07;11.00;99.90
12661;DHT22;39039;51.802;5.710;2022-09-20T19:44:41;10.90;99.90
12661;DHT22;39039;51.802;5.710;2022-09-20T19:47:20;11.10;99.90
12661;DHT22;39039;51.802;5.710;2022-09-20T19:49:53;11.00;99.90
12661;DHT22;39039;51.802;5.710;2022-09-20T19:52:22;11.10;99.90
12661;DHT22;39039;51.802;5.710;2022-09-20T19:54:49;11.10;99.90
12661;DHT22;39039;51.802;5.710;2022-09-20T19:57:18;11.10;99.90
12661;DHT22;39039;51.802;5.710;2022-09-20T19:59:47;11.10;99.90
12661;DHT22;39039;51.802;5.710;2022-09-20T20:04:42;11.00;99.90
12661;DHT22;39039;51.802;5.710;2022-09-20T20:07:19;11.00;99.90
12661;DHT22;39039;51.802;5.710;2022-09-20T20:09:55;11.10;99.90
12661;DHT22;39039;51.802;5.710;2022-09-20T20:12:30;11.10;99.90
12661;DHT22;39039;51.802;5.710;2022-09-20T20:15:06;11.10;99.90
12661;DHT22;39039;51.802;5.710;2022-09-20T20:17:43;11.00;99.90
12661;DHT22;39039;51.802;5.710;2022-09-20T20:20:23;10.90;99.90
12661;DHT22;39039;51.802;5.710;2022-09-20T20:25:51;10.90;99.90
12661;DHT22;39039;51.802;5.710;2022-09-20T20:35:51;10.80;99.90
12661;DHT22;39039;51.802;5.710;2022-09-20T20:40:56;10.70;99.90
12661;DHT22;39039;51.802;5.710;2022-09-20T20:43:25;10.90;99.90
12661;DHT22;39039;51.802;5.710;2022-09-20T20:50:58;11.00;99.90
12661;DHT22;39039;51.802;5.710;2022-09-20T20:53:29;11.00;99.90
12661;DHT22;39039;51.802;5.710;2022-09-20T20:56:04;11.10;99.90
12661;DHT22;39039;51.802;5.710;2022-09-20T20:58:32;11.10;99.90
12661;DHT22;39039;51.802;5.710;2022-09-20T21:35:50;11.80;99.90
12661;DHT22;39039;51.802;5.710;2022-09-20T21:50:37;11.90;99.90
12661;DHT22;39039;51.802;5.710;2022-09-20T22:27:34;12.00;99.90
12661;DHT22;39039;51.802;5.710;2022-09-20T22:54:36;11.90;99.90
12661;DHT22;39039;51.802;5.710;2022-09-20T22:59:31;11.90;99.90
12661;DHT22;39039;51.802;5.710;2022-09-20T23:04:25;11.90;99.90
